Time;durP1;ratioP1;P1;durP2;ratioP2;P2;SDS_P1;SDS_P2;PMS_P1;PMS_P2;Temp;Humidity;BMP_temperature;BMP_pressure;BME280_temperature;BME280_humidity;BME280_pressure;Samples;Min_cycle;Max_cycle;Signal;HPM_P1;HPM_P2
2021/12/27 00:01:26;;;;;;;41.58;17.83;;;;;;;4.62;100.00;99295.28;8383189;28;20043;-64
2021/12/27 00:05:27;;;;;;;38.72;18.63;;;;;;;4.62;100.00;99295.28;8382754;28;20032;-64
2021/12/27 00:09:28;;;;;;;47.63;19.02;;;;;;;4.61;100.00;99296.28;8375504;28;20037;-64
2021/12/27 00:13:30;;;;;;;47.75;20.90;;;;;;;4.68;100.00;99289.41;8371243;28;20047;-64
2021/12/27 00:17:30;;;;;;;41.22;18.60;;;;;;;4.73;100.00;99292.53;8369362;28;20394;-64
2021/12/27 00:21:31;;;;;;;42.42;18.00;;;;;;;4.77;100.00;99288.59;8378657;28;20111;-64
2021/12/27 00:25:31;;;;;;;40.63;16.92;;;;;;;4.80;100.00;99277.63;8389502;28;20036;-64
2021/12/27 00:29:32;;;;;;;41.15;18.48;;;;;;;4.83;100.00;99286.25;8389587;28;20033;-64
2021/12/27 00:33:32;;;;;;;40.03;18.52;;;;;;;4.86;100.00;99287.78;8371509;28;20028;-64
2021/12/27 00:37:33;;;;;;;42.97;18.92;;;;;;;4.85;100.00;99286.09;8388939;28;20040;-64
2021/12/27 00:41:34;;;;;;;40.28;19.45;;;;;;;4.90;100.00;99286.53;8389484;28;20086;-64
2021/12/27 00:45:34;;;;;;;38.00;18.08;;;;;;;4.91;100.00;99280.22;8389351;28;20116;-64
2021/12/27 00:49:34;;;;;;;39.42;19.63;;;;;;;4.90;100.00;99282.03;8387002;28;20121;-64
2021/12/27 00:53:35;;;;;;;39.42;18.48;;;;;;;4.95;100.00;99281.63;8389354;28;20404;-64
2021/12/27 00:57:36;;;;;;;45.53;19.05;;;;;;;4.93;100.00;99267.53;8388583;28;20040;-64
2021/12/27 01:01:36;;;;;;;40.10;18.25;;;;;;;4.96;100.00;99267.25;8387297;28;20116;-64
2021/12/27 01:05:37;;;;;;;33.38;16.10;;;;;;;4.95;100.00;99263.75;8388446;28;20032;-64
2021/12/27 01:13:44;;;;;;;38.90;18.25;;;;;;;4.96;100.00;99268.09;8366823;28;20071;-64
2021/12/27 01:17:47;;;;;;;42.33;18.23;;;;;;;4.93;100.00;99260.34;8386786;28;20055;-64
2021/12/27 01:21:48;;;;;;;41.92;19.23;;;;;;;4.94;100.00;99255.84;8386746;28;20032;-64
2021/12/27 01:25:48;;;;;;;40.55;17.95;;;;;;;4.97;100.00;99248.38;8387946;28;20089;-64
2021/12/27 01:29:48;;;;;;;38.17;18.25;;;;;;;4.98;100.00;99254.59;8388388;28;20039;-64
2021/12/27 01:33:49;;;;;;;38.75;17.55;;;;;;;4.98;100.00;99249.22;8370154;28;20557;-64
2021/12/27 01:37:51;;;;;;;39.65;17.50;;;;;;;5.01;100.00;99259.66;8387596;28;20656;-64
2021/12/27 01:41:54;;;;;;;46.40;19.40;;;;;;;4.99;100.00;99251.78;8388119;28;20033;-64
2021/12/27 01:45:57;;;;;;;36.47;17.08;;;;;;;5.01;100.00;99259.66;8386242;28;20045;-64
2021/12/27 01:49:58;;;;;;;40.33;18.07;;;;;;;4.98;100.00;99254.59;8386580;28;20094;-63
2021/12/27 01:53:59;;;;;;;40.88;18.52;;;;;;;4.99;100.00;99251.78;8387727;28;20043;-64
2021/12/27 01:58:00;;;;;;;42.85;19.52;;;;;;;4.99;100.00;99259.81;8387062;28;20048;-64
2021/12/27 02:02:00;;;;;;;39.63;17.80;;;;;;;5.02;100.00;99256.00;8387551;28;20036;-64
2021/12/27 02:06:01;;;;;;;39.17;17.27;;;;;;;5.03;100.00;99257.72;8390883;28;20039;-64
2021/12/27 02:10:02;;;;;;;38.35;16.20;;;;;;;5.02;100.00;99256.84;8393613;28;20032;-64
2021/12/27 02:14:05;;;;;;;37.13;17.40;;;;;;;5.04;100.00;99251.34;8378525;28;20044;-64
2021/12/27 02:18:05;;;;;;;35.38;17.27;;;;;;;5.10;100.00;99240.09;8367139;28;20571;-64
2021/12/27 02:22:07;;;;;;;31.92;16.23;;;;;;;5.13;100.00;99239.81;8372432;28;20173;-64
2021/12/27 02:26:08;;;;;;;34.97;16.98;;;;;;;5.14;100.00;99244.19;8388773;28;20033;-64
2021/12/27 02:30:12;;;;;;;39.97;17.55;;;;;;;5.12;100.00;99240.81;8392748;28;20105;-64
2021/12/27 02:34:12;;;;;;;31.75;14.25;;;;;;;5.13;100.00;99237.16;8393084;28;20041;-64
2021/12/27 02:38:16;;;;;;;34.35;15.40;;;;;;;5.12;100.00;99230.09;8368133;28;20034;-64
2021/12/27 02:42:19;;;;;;;33.95;16.63;;;;;;;5.16;100.00;99231.50;8325434;28;20386;-64
2021/12/27 02:46:19;;;;;;;37.65;15.30;;;;;;;5.17;100.00;99225.16;8358019;28;20036;-64
2021/12/27 02:50:21;;;;;;;36.15;16.15;;;;;;;5.14;100.00;99218.25;8373013;28;20036;-64
2021/12/27 02:54:21;;;;;;;32.33;15.27;;;;;;;5.18;100.00;99226.84;8391350;28;20043;-64
2021/12/27 02:58:22;;;;;;;36.03;17.08;;;;;;;5.16;100.00;99226.16;8390507;28;20533;-64
2021/12/27 03:02:23;;;;;;;36.45;16.05;;;;;;;5.20;100.00;99230.25;8390454;28;20040;-64
2021/12/27 03:06:24;;;;;;;37.88;17.70;;;;;;;5.20;100.00;99222.22;8390123;28;20507;-64
2021/12/27 03:10:28;;;;;;;32.92;15.85;;;;;;;5.20;100.00;99216.84;8373791;28;20470;-64
2021/12/27 03:14:28;;;;;;;;;;;;;;;5.17;100.00;99211.78;8391244;28;20519;-64
2021/12/27 03:18:31;;;;;;;35.27;16.47;;;;;;;5.13;100.00;99205.00;8390953;28;20053;-64
2021/12/27 03:22:33;;;;;;;34.40;16.30;;;;;;;5.09;100.00;99204.44;8391596;28;20040;-64
2021/12/27 03:26:33;;;;;;;32.10;15.70;;;;;;;5.15;100.00;99203.00;8390955;28;20035;-64
2021/12/27 03:30:35;;;;;;;37.58;17.17;;;;;;;5.12;100.00;99200.66;8391034;28;20508;-64
2021/12/27 03:34:41;;;;;;;36.97;16.40;;;;;;;5.15;100.00;99203.00;8369629;28;20404;-64
2021/12/27 03:38:45;;;;;;;34.97;16.70;;;;;;;5.15;100.00;99197.66;8390419;28;20040;-64
2021/12/27 03:42:49;;;;;;;42.70;17.80;;;;;;;5.19;100.00;99191.06;8390963;28;20033;-64
2021/12/27 03:46:50;;;;;;;33.78;16.52;;;;;;;5.22;100.00;99196.13;8390567;28;20028;-64
2021/12/27 03:50:50;;;;;;;34.53;16.65;;;;;;;5.28;100.00;99195.59;8390895;28;20806;-64
2021/12/27 03:54:51;;;;;;;36.78;15.15;;;;;;;5.33;100.00;99190.63;8388173;28;20869;-64
2021/12/27 03:58:57;;;;;;;39.78;16.88;;;;;;;5.30;100.00;99186.41;8367729;28;20044;-64
2021/12/27 04:03:00;;;;;;;43.08;17.88;;;;;;;5.32;100.00;99170.19;8378819;28;20044;-64
2021/12/27 04:07:00;;;;;;;38.42;17.13;;;;;;;5.36;100.00;99179.63;8374178;28;20032;-64
2021/12/27 04:11:01;;;;;;;40.25;16.92;;;;;;;5.41;100.00;99172.03;8342133;28;20033;-64
2021/12/27 04:15:04;;;;;;;36.25;16.45;;;;;;;5.45;100.00;99173.44;8372339;28;20035;-64
2021/12/27 04:19:04;;;;;;;33.35;15.65;;;;;;;5.43;100.00;99165.53;8400008;28;20049;-64
2021/12/27 04:23:05;;;;;;;32.92;16.35;;;;;;;5.44;100.00;99167.25;8388873;28;20040;-64
2021/12/27 04:27:05;;;;;;;34.42;17.17;;;;;;;5.43;100.00;99149.44;8364892;28;20500;-65
2021/12/27 04:31:06;;;;;;;36.30;15.60;;;;;;;5.44;100.00;99144.94;8391121;28;20032;-64
2021/12/27 04:35:07;;;;;;;36.00;16.58;;;;;;;5.44;100.00;99151.16;8390571;28;20032;-64
2021/12/27 04:39:08;;;;;;;34.92;15.05;;;;;;;5.46;100.00;99148.34;8390378;28;20492;-64
2021/12/27 04:43:12;;;;;;;34.13;15.93;;;;;;;5.45;100.00;99150.16;8390206;28;20465;-64
2021/12/27 04:47:16;;;;;;;36.83;15.77;;;;;;;5.47;100.00;99144.66;8390012;28;20454;-64
2021/12/27 04:51:16;;;;;;;32.65;16.58;;;;;;;5.48;100.00;99146.34;8390374;28;20465;-64
2021/12/27 04:55:17;;;;;;;35.65;15.20;;;;;;;5.50;100.00;99139.03;8389678;28;20064;-64
2021/12/27 04:59:17;;;;;;;37.58;16.17;;;;;;;5.50;100.00;99142.56;8390217;28;20032;-64
2021/12/27 05:03:18;;;;;;;35.47;15.82;;;;;;;5.53;100.00;99146.78;8389151;28;20523;-64
2021/12/27 05:07:18;;;;;;;31.98;15.13;;;;;;;5.55;100.00;99147.50;8389953;28;20395;-64
2021/12/27 05:11:19;;;;;;;36.20;16.10;;;;;;;5.53;100.00;99133.38;8376383;28;20041;-65
2021/12/27 05:15:20;;;;;;;34.13;15.73;;;;;;;5.54;100.00;99135.06;8388977;28;20090;-65
2021/12/27 05:19:21;;;;;;;32.58;15.32;;;;;;;5.56;100.00;99133.09;8389523;28;20097;-65
2021/12/27 05:23:21;;;;;;;34.08;15.70;;;;;;;5.54;100.00;99113.63;8385970;28;20056;-64
2021/12/27 05:27:21;;;;;;;33.25;16.90;;;;;;;5.54;100.00;99118.97;8367143;28;20098;-65
2021/12/27 05:31:22;;;;;;;30.17;14.02;;;;;;;5.59;100.00;99116.72;8389852;28;20044;-64
2021/12/27 05:35:22;;;;;;;30.23;15.07;;;;;;;5.60;100.00;99123.78;8389077;28;20032;-64
2021/12/27 05:39:24;;;;;;;31.08;14.30;;;;;;;5.61;100.00;99114.72;8390378;28;20040;-64
2021/12/27 05:43:26;;;;;;;32.65;15.90;;;;;;;5.62;100.00;99111.91;8386524;28;20397;-65
2021/12/27 05:47:26;;;;;;;30.95;14.50;;;;;;;5.61;100.00;99101.31;8396044;28;20083;-64
2021/12/27 05:51:27;;;;;;;31.88;14.98;;;;;;;5.66;100.00;99096.38;8388549;28;20036;-65
2021/12/27 05:55:27;;;;;;;30.23;14.38;;;;;;;5.74;100.00;99109.94;8395614;28;20037;-65
2021/12/27 05:59:28;;;;;;;33.55;14.40;;;;;;;5.74;100.00;99104.56;8376113;28;20059;-64
2021/12/27 06:03:28;;;;;;;28.23;13.77;;;;;;;5.77;100.00;99106.97;8360614;28;20115;-65
2021/12/27 06:07:30;;;;;;;37.17;14.70;;;;;;;5.80;100.00;99099.44;8377184;28;20399;-65
2021/12/27 06:11:30;;;;;;;31.08;12.80;;;;;;;5.87;100.00;99099.75;8389867;28;20117;-65
2021/12/27 06:15:31;;;;;;;29.65;12.32;;;;;;;5.88;100.00;99096.06;8391374;28;20028;-64
2021/12/27 06:19:31;;;;;;;24.90;13.05;;;;;;;5.87;100.00;99099.75;8383981;28;20125;-65
2021/12/27 06:23:32;;;;;;;26.55;13.13;;;;;;;5.82;100.00;99102.88;8391582;28;20427;-64
2021/12/27 06:27:33;;;;;;;24.60;12.93;;;;;;;5.86;100.00;99108.81;8381322;28;20040;-64
2021/12/27 06:31:34;;;;;;;29.02;12.35;;;;;;;5.85;100.00;99109.78;8373124;28;20029;-65
2021/12/27 06:35:35;;;;;;;26.83;13.88;;;;;;;5.80;100.00;99112.03;8381227;28;20037;-64
2021/12/27 06:39:36;;;;;;;29.33;13.32;;;;;;;5.81;100.00;99116.38;8383648;28;20045;-65
2021/12/27 06:43:36;;;;;;;25.48;12.20;;;;;;;5.84;100.00;99105.41;8382675;28;20316;-65
2021/12/27 06:47:37;;;;;;;28.20;13.02;;;;;;;5.86;100.00;99098.06;8380329;28;20051;-65
2021/12/27 06:51:37;;;;;;;22.60;11.57;;;;;;;5.80;100.00;99107.50;8383055;28;20484;-65
2021/12/27 06:55:38;;;;;;;27.13;13.10;;;;;;;5.70;100.00;99108.50;8380370;28;20041;-65
2021/12/27 06:59:38;;;;;;;25.35;12.63;;;;;;;5.59;100.00;99106.88;8376860;28;20045;-64
2021/12/27 07:03:39;;;;;;;27.88;13.38;;;;;;;5.49;100.00;99099.81;8383914;28;20036;-65
2021/12/27 07:07:40;;;;;;;30.15;13.95;;;;;;;5.46;100.00;99089.41;8388522;28;20120;-65
2021/12/27 07:11:41;;;;;;;31.90;13.77;;;;;;;5.42;100.00;99082.59;8368758;28;20128;-65
2021/12/27 07:15:42;;;;;;;32.92;14.48;;;;;;;5.39;100.00;99088.25;8364139;28;20040;-65
2021/12/27 07:19:42;;;;;;;28.98;14.23;;;;;;;5.37;100.00;99079.53;8383165;28;20041;-65
2021/12/27 07:23:44;;;;;;;30.17;14.45;;;;;;;5.40;100.00;99073.88;8381922;28;20110;-65
2021/12/27 07:27:44;;;;;;;34.72;15.88;;;;;;;5.39;100.00;99090.94;8379026;28;20424;-65
2021/12/27 07:31:45;;;;;;;40.47;18.40;;;;;;;5.41;100.00;99080.94;8371283;28;20044;-65
2021/12/27 07:35:47;;;;;;;40.90;17.00;;;;;;;5.44;100.00;99092.22;8378950;28;20504;-65
2021/12/27 07:39:48;;;;;;;43.10;18.55;;;;;;;5.44;100.00;99086.00;8379110;28;20515;-65
2021/12/27 07:43:48;;;;;;;33.50;17.23;;;;;;;5.41;100.00;99080.94;8378724;28;20464;-65
2021/12/27 07:47:49;;;;;;;36.33;15.10;;;;;;;5.39;100.00;99082.88;8377751;28;20041;-65
2021/12/27 07:51:49;;;;;;;37.05;17.77;;;;;;;5.50;100.00;99088.97;8385330;28;20488;-65
2021/12/27 07:55:50;;;;;;;30.80;16.73;;;;;;;5.56;100.00;99080.34;8379334;28;20040;-64
2021/12/27 07:59:50;;;;;;;34.08;15.43;;;;;;;5.54;100.00;99076.09;8373586;28;20097;-64
2021/12/27 08:03:52;;;;;;;35.90;15.10;;;;;;;5.58;100.00;99082.88;8365736;28;20492;-64
2021/12/27 08:07:54;;;;;;;30.45;15.50;;;;;;;5.64;100.00;99083.13;8368129;28;20419;-64
2021/12/27 08:11:55;;;;;;;32.47;15.88;;;;;;;5.67;100.00;99082.84;8371753;28;20055;-64
2021/12/27 08:15:55;;;;;;;31.60;15.90;;;;;;;5.65;100.00;99068.72;8376089;28;20349;-64
2021/12/27 08:19:56;;;;;;;25.65;13.88;;;;;;;5.72;100.00;99077.03;8372401;28;20036;-64
2021/12/27 08:23:57;;;;;;;34.00;14.80;;;;;;;5.76;100.00;99070.41;8375805;28;20048;-64
2021/12/27 08:27:58;;;;;;;37.20;15.85;;;;;;;5.87;100.00;99079.16;8370494;28;20131;-64
2021/12/27 08:31:59;;;;;;;29.45;14.95;;;;;;;5.89;100.00;99073.66;8375117;28;20033;-64
2021/12/27 08:35:59;;;;;;;32.05;13.57;;;;;;;5.93;100.00;99064.31;8370038;28;20121;-64
2021/12/27 08:40:00;;;;;;;26.67;12.90;;;;;;;5.98;100.00;99068.22;8371028;28;20040;-64
2021/12/27 08:44:04;;;;;;;23.75;12.50;;;;;;;6.03;100.00;99057.06;8374587;28;20467;-64
2021/12/27 08:48:05;;;;;;;29.40;13.45;;;;;;;6.11;100.00;99054.50;8354361;28;20040;-64
2021/12/27 08:52:06;;;;;;;23.95;12.68;;;;;;;6.15;100.00;99053.19;8368498;28;20037;-64
2021/12/27 08:56:07;;;;;;;26.88;12.18;;;;;;;6.19;100.00;99046.53;8365305;28;20041;-64
2021/12/27 09:00:11;;;;;;;24.30;11.77;;;;;;;6.31;100.00;99050.72;8362402;28;20095;-64
2021/12/27 09:04:12;;;;;;;26.65;12.20;;;;;;;6.34;100.00;99045.03;8356515;28;20044;-64
2021/12/27 09:08:12;;;;;;;28.08;12.68;;;;;;;6.43;100.00;99048.69;8365814;28;20036;-64
2021/12/27 09:12:13;;;;;;;22.75;11.35;;;;;;;6.45;100.00;99046.69;8362728;28;20124;-64
2021/12/27 09:16:14;;;;;;;28.13;14.07;;;;;;;6.51;100.00;99033.50;8349012;28;20187;-64
2021/12/27 09:20:14;;;;;;;27.30;11.73;;;;;;;6.61;100.00;99031.59;8378281;28;20040;-64
2021/12/27 09:24:15;;;;;;;21.35;10.77;;;;;;;6.72;100.00;99044.81;8379456;28;20052;-64
2021/12/27 09:28:16;;;;;;;24.45;11.88;;;;;;;6.75;100.00;99041.81;8371343;28;20928;-64
2021/12/27 09:32:17;;;;;;;25.75;11.68;;;;;;;6.80;100.00;99052.09;8371170;28;20051;-65
2021/12/27 09:36:17;;;;;;;23.02;10.32;;;;;;;6.81;100.00;99038.53;8341339;28;20075;-63
2021/12/27 09:40:18;;;;;;;24.48;12.27;;;;;;;6.87;100.00;99037.06;8376345;28;20355;-63
2021/12/27 09:44:18;;;;;;;20.75;11.27;;;;;;;6.89;100.00;99029.69;8373692;28;20040;-63
2021/12/27 09:48:19;;;;;;;26.42;12.23;;;;;;;6.94;100.00;99017.50;8378438;28;20332;-63
2021/12/27 09:52:19;;;;;;;21.15;10.88;;;;;;;7.02;100.00;99014.84;8360700;28;20051;-63
2021/12/27 09:56:19;;;;;;;22.73;11.55;;;;;;;7.00;100.00;99010.63;8362049;28;20505;-63
2021/12/27 10:00:20;;;;;;;25.50;12.55;;;;;;;7.16;100.00;99022.38;8358134;28;20045;-63
2021/12/27 10:04:21;;;;;;;20.58;11.13;;;;;;;7.29;100.00;99016.59;8378917;28;20044;-63
2021/12/27 10:08:22;;;;;;;22.38;11.70;;;;;;;7.40;100.00;99009.13;8363294;28;20130;-63
2021/12/27 10:12:23;;;;;;;25.02;11.68;;;;;;;7.54;100.00;99008.53;8376376;28;20043;-63
2021/12/27 10:16:24;;;;;;;24.45;11.48;;;;;;;7.55;100.00;99002.16;8380452;28;20200;-63
2021/12/27 10:20:25;;;;;;;21.98;11.80;;;;;;;7.64;100.00;99003.91;8380738;28;20094;-63
2021/12/27 10:24:28;;;;;;;20.75;12.43;;;;;;;7.81;100.00;98992.22;8380251;28;20036;-63
2021/12/27 10:28:29;;;;;;;22.55;13.30;;;;;;;8.24;100.00;98985.88;8366716;28;20043;-63
2021/12/27 10:32:29;;;;;;;18.38;9.60;;;;;;;8.34;100.00;98983.91;8380534;28;20041;-63
2021/12/27 10:36:30;;;;;;;17.55;11.35;;;;;;;8.24;100.00;98993.09;8378422;28;20048;-63
2021/12/27 10:40:33;;;;;;;19.63;11.82;;;;;;;8.22;100.00;98978.94;8379287;28;20047;-63
2021/12/27 10:44:36;;;;;;;16.45;9.68;;;;;;;8.39;100.00;98980.72;8381856;28;20050;-63
2021/12/27 10:48:40;;;;;;;17.38;10.13;;;;;;;8.38;100.00;98979.03;8378575;28;20064;-63
2021/12/27 10:52:49;;;;;;;17.00;10.02;;;;;;;8.57;100.00;98978.72;8378410;28;20131;-63
2021/12/27 10:56:52;;;;;;;13.60;8.77;;;;;;;8.83;100.00;98968.66;8377990;28;20045;-64
2021/12/27 11:00:57;;;;;;;13.65;8.43;;;;;;;9.05;100.00;98962.59;8379750;28;20482;-64
2021/12/27 11:05:16;;;;;;;12.13;7.78;;;;;;;9.45;100.00;98959.84;8370049;28;20169;-63
2021/12/27 11:09:17;;;;;;;15.15;7.38;;;;;;;9.74;100.00;98954.72;8373497;28;20064;-63
2021/12/27 11:13:18;;;;;;;8.63;6.25;;;;;;;9.85;100.00;98962.44;8380996;28;20060;-64
2021/12/27 11:17:19;;;;;;;10.20;6.18;;;;;;;9.74;100.00;98952.88;8380711;28;20047;-64
2021/12/27 11:21:22;;;;;;;7.00;5.03;;;;;;;9.75;100.00;98945.59;8373908;28;20480;-64
2021/12/27 11:30:04;;;;;;;5.75;5.05;;;;;;;9.79;100.00;98952.38;8400907;27;20422;-64
2021/12/27 11:34:07;;;;;;;7.85;4.63;;;;;;;9.84;100.00;98941.88;8388433;28;20484;-64
2021/12/27 11:38:26;;;;;;;6.47;4.35;;;;;;;9.88;100.00;98935.94;8332786;28;20379;-64
2021/12/27 11:42:27;;;;;;;5.32;4.40;;;;;;;9.91;100.00;98918.56;8340203;28;20049;-64
2021/12/27 11:46:31;;;;;;;6.53;4.85;;;;;;;9.97;100.00;98925.94;8337282;28;20068;-64
2021/12/27 11:50:31;;;;;;;6.15;4.70;;;;;;;10.12;100.00;98916.13;8340150;28;20037;-64
2021/12/27 11:54:33;;;;;;;6.03;4.72;;;;;;;10.17;100.00;98908.34;8336768;28;20479;-64
2021/12/27 11:58:36;;;;;;;6.18;5.00;;;;;;;10.20;100.00;98901.72;8355108;28;20425;-64
2021/12/27 12:02:37;;;;;;;6.35;4.53;;;;;;;10.19;100.00;98890.13;8327243;28;20128;-64
2021/12/27 12:06:43;;;;;;;7.07;4.65;;;;;;;9.99;100.00;98884.28;8326122;28;20053;-64
2021/12/27 12:11:00;;;;;;;8.43;4.18;;;;;;;9.94;100.00;98875.00;8326051;28;20366;-64
2021/12/27 12:15:02;;;;;;;6.53;4.78;;;;;;;9.83;100.00;98883.53;8332047;28;20519;-64
2021/12/27 12:19:09;;;;;;;7.50;5.35;;;;;;;9.80;100.00;98868.50;8334434;28;20052;-64
2021/12/27 12:23:10;;;;;;;6.47;4.63;;;;;;;9.71;100.00;98879.53;8368974;28;20049;-64
2021/12/27 12:27:11;;;;;;;10.18;6.20;;;;;;;9.64;100.00;98871.28;8344401;28;20045;-64
2021/12/27 12:31:11;;;;;;;8.30;4.60;;;;;;;9.58;100.00;98884.63;8326656;28;20142;-64
2021/12/27 12:35:29;;;;;;;9.27;5.68;;;;;;;9.61;100.00;98881.59;8320210;28;20139;-64
2021/12/27 12:39:48;;;;;;;8.40;4.80;;;;;;;9.61;100.00;98865.41;8301592;28;20050;-65
2021/12/27 12:43:56;;;;;;;7.25;5.05;;;;;;;9.65;100.00;98864.88;8320060;28;20795;-64
2021/12/27 12:47:57;;;;;;;7.45;5.07;;;;;;;9.68;100.00;98864.53;8307570;28;20049;-64
2021/12/27 12:52:02;;;;;;;7.43;5.55;;;;;;;9.71;100.00;98863.34;8311496;28;20509;-65
2021/12/27 12:56:04;;;;;;;6.47;5.05;;;;;;;9.73;100.00;98862.13;8310993;28;20045;-64
2021/12/27 13:00:05;;;;;;;6.80;4.88;;;;;;;9.72;100.00;98859.59;8289470;28;20073;-65
2021/12/27 13:04:06;;;;;;;8.55;5.43;;;;;;;9.83;100.00;98884.34;8314096;28;20586;-64
2021/12/27 13:08:14;;;;;;;7.82;4.97;;;;;;;9.82;100.00;98877.28;8315283;28;20440;-65
2021/12/27 13:12:24;;;;;;;7.72;5.35;;;;;;;9.83;100.00;98880.81;8303086;28;20083;-65
2021/12/27 13:16:28;;;;;;;6.32;4.50;;;;;;;9.84;100.00;98879.78;8301076;28;20581;-65
2021/12/27 13:20:32;;;;;;;5.82;4.30;;;;;;;9.79;100.00;98871.41;8298856;28;20048;-65
2021/12/27 13:24:32;;;;;;;6.40;4.68;;;;;;;9.85;100.00;98886.88;8346246;28;20087;-64
2021/12/27 13:28:36;;;;;;;5.93;4.40;;;;;;;9.74;100.00;98890.81;8312897;28;20041;-65
2021/12/27 13:32:37;;;;;;;7.03;4.95;;;;;;;9.74;100.00;98887.28;8318584;28;20445;-65
2021/12/27 13:36:39;;;;;;;6.13;4.40;;;;;;;9.71;100.00;98891.16;8294245;28;20093;-65
2021/12/27 13:41:02;;;;;;;5.60;4.25;;;;;;;9.73;100.00;98893.69;8313113;28;20048;-65
2021/12/27 13:45:17;;;;;;;5.97;4.78;;;;;;;9.76;100.00;98893.34;8303369;28;20530;-65
2021/12/27 13:49:18;;;;;;;5.55;3.88;;;;;;;9.67;100.00;98899.78;8308219;28;20046;-65
2021/12/27 13:53:19;;;;;;;10.52;4.75;;;;;;;9.56;100.00;98894.75;8318644;28;20459;-66
2021/12/27 13:57:30;;;;;;;6.78;5.03;;;;;;;9.57;100.00;98893.72;8313570;28;20083;-66
2021/12/27 14:01:30;;;;;;;5.63;4.47;;;;;;;9.54;100.00;98889.53;8312793;28;20369;-66
2021/12/27 14:05:33;;;;;;;7.35;4.65;;;;;;;9.60;100.00;98893.38;8313216;28;20092;-66
2021/12/27 14:09:36;;;;;;;5.95;4.43;;;;;;;9.58;100.00;98879.25;8304484;28;20489;-66
2021/12/27 14:13:58;;;;;;;6.63;4.60;;;;;;;9.40;100.00;98870.53;8315090;28;20365;-66
2021/12/27 14:18:08;;;;;;;6.65;4.60;;;;;;;9.58;100.00;98863.06;8303201;28;20048;-66
2021/12/27 14:22:13;;;;;;;8.02;5.00;;;;;;;9.59;100.00;98862.88;8313037;28;20041;-66
2021/12/27 14:26:15;;;;;;;8.50;4.63;;;;;;;9.60;100.00;98851.06;8312551;28;20068;-66
2021/12/27 14:30:36;;;;;;;7.22;4.45;;;;;;;9.65;100.00;98839.75;8305729;28;20049;-66
2021/12/27 14:34:46;;;;;;;7.63;4.55;;;;;;;9.72;100.00;98846.13;8311421;28;20445;-66
2021/12/27 14:38:47;;;;;;;7.75;5.00;;;;;;;9.74;100.00;98844.09;8311074;28;20105;-66
2021/12/27 14:42:50;;;;;;;10.15;4.82;;;;;;;9.83;100.00;98846.56;8317535;28;20030;-66
2021/12/27 14:46:52;;;;;;;11.60;6.25;;;;;;;9.81;100.00;98854.00;8306170;28;20103;-66
2021/12/27 14:50:53;;;;;;;8.10;4.50;;;;;;;9.76;100.00;98844.78;8309997;28;20041;-66
2021/12/27 14:54:53;;;;;;;8.90;5.43;;;;;;;9.74;100.00;98846.78;8310827;28;20095;-66
2021/12/27 14:58:54;;;;;;;14.43;5.32;;;;;;;9.66;100.00;98844.13;8307007;28;20042;-66
2021/12/27 15:02:55;;;;;;;9.48;5.72;;;;;;;9.55;100.00;98836.44;8311815;28;20040;-66
2021/12/27 15:06:56;;;;;;;9.32;6.53;;;;;;;9.50;100.00;98836.97;8311118;28;20352;-66
2021/12/27 15:10:56;;;;;;;9.05;5.82;;;;;;;9.45;100.00;98836.63;8311164;28;20045;-66
2021/12/27 15:14:58;;;;;;;9.25;5.57;;;;;;;9.54;100.00;98837.44;8310932;28;20042;-66
2021/12/27 15:18:58;;;;;;;9.18;6.80;;;;;;;9.51;100.00;98840.47;8297369;28;20046;-66
2021/12/27 15:22:58;;;;;;;11.77;6.78;;;;;;;9.46;100.00;98832.91;8292842;28;20069;-67
2021/12/27 15:27:01;;;;;;;33.45;16.08;;;;;;;9.36;100.00;98836.81;8296811;28;20526;-67
2021/12/27 15:31:04;;;;;;;29.88;14.00;;;;;;;9.29;100.00;98847.47;8293139;28;20379;-67
2021/12/27 15:35:07;;;;;;;15.53;9.13;;;;;;;9.21;100.00;98836.72;8291720;28;20132;-67
2021/12/27 15:39:08;;;;;;;12.52;8.50;;;;;;;9.15;100.00;98836.56;8294233;28;20038;-67
2021/12/27 15:43:09;;;;;;;13.38;7.88;;;;;;;9.05;100.00;98838.59;8297886;28;20048;-67
2021/12/27 15:47:09;;;;;;;13.38;7.97;;;;;;;8.97;100.00;98846.72;8290347;28;20045;-67
2021/12/27 15:51:10;;;;;;;11.93;7.55;;;;;;;8.94;100.00;98852.44;8300426;28;20088;-67
2021/12/27 15:55:12;;;;;;;17.20;9.25;;;;;;;8.95;100.00;98851.44;8303414;28;20575;-67
2021/12/27 15:59:13;;;;;;;15.85;8.75;;;;;;;8.95;100.00;98848.75;8302350;28;20041;-67
2021/12/27 16:03:14;;;;;;;15.48;8.70;;;;;;;8.93;100.00;98851.59;8300565;28;20103;-67
2021/12/27 16:07:15;;;;;;;15.25;9.07;;;;;;;8.90;100.00;98851.09;8294862;28;20037;-67
2021/12/27 16:11:16;;;;;;;8.18;6.00;;;;;;;8.92;100.00;98855.31;8306699;28;20042;-67
2021/12/27 16:15:17;;;;;;;12.35;7.90;;;;;;;8.82;100.00;98856.50;8303136;28;20042;-66
2021/12/27 16:19:18;;;;;;;13.65;8.70;;;;;;;8.78;100.00;98844.41;8296386;28;20045;-66
2021/12/27 16:23:18;;;;;;;9.63;7.57;;;;;;;8.73;100.00;98844.06;8299068;28;20254;-66
2021/12/27 16:27:19;;;;;;;10.25;7.55;;;;;;;8.68;100.00;98841.00;8302256;28;20382;-66
2021/12/27 16:31:20;;;;;;;14.02;8.73;;;;;;;8.64;100.00;98837.00;8305173;28;20041;-66
2021/12/27 16:35:20;;;;;;;12.68;7.28;;;;;;;8.66;100.00;98826.91;8304496;28;20046;-65
2021/12/27 16:39:21;;;;;;;14.57;8.15;;;;;;;8.67;100.00;98834.81;8312711;28;20438;-65
2021/12/27 16:43:22;;;;;;;16.02;8.60;;;;;;;8.64;100.00;98839.69;8305641;28;20049;-66
2021/12/27 16:47:23;;;;;;;21.10;9.48;;;;;;;8.62;100.00;98841.69;8295756;28;20114;-65
2021/12/27 16:51:25;;;;;;;16.98;9.57;;;;;;;8.63;100.00;98848.78;8302165;28;20628;-65
2021/12/27 16:55:26;;;;;;;16.67;10.60;;;;;;;8.63;100.00;98848.78;8303881;28;20269;-65
2021/12/27 16:59:28;;;;;;;15.65;8.52;;;;;;;8.63;100.00;98836.13;8299158;28;20038;-65
2021/12/27 17:03:28;;;;;;;13.55;9.30;;;;;;;8.70;100.00;98833.63;8287655;28;20042;-66
2021/12/27 17:07:29;;;;;;;14.18;9.27;;;;;;;8.73;100.00;98833.28;8304328;28;20045;-66
2021/12/27 17:11:35;;;;;;;12.98;7.85;;;;;;;8.79;100.00;98821.81;8309096;28;20045;-66
2021/12/27 17:15:38;;;;;;;11.80;8.15;;;;;;;8.83;100.00;98825.84;8337090;28;20045;-66
2021/12/27 17:19:38;;;;;;;15.45;9.10;;;;;;;8.88;100.00;98828.88;8317175;28;20037;-66
2021/12/27 17:23:39;;;;;;;12.60;8.82;;;;;;;8.90;100.00;98824.16;8320133;28;20036;-66
2021/12/27 17:27:39;;;;;;;11.38;8.02;;;;;;;8.90;100.00;98819.59;8319805;28;20045;-66
2021/12/27 17:31:40;;;;;;;14.85;9.77;;;;;;;8.92;100.00;98830.22;8311887;28;20037;-66
2021/12/27 17:35:41;;;;;;;20.85;11.82;;;;;;;8.96;100.00;98818.06;8313597;28;20037;-66
2021/12/27 17:39:41;;;;;;;22.70;12.35;;;;;;;9.00;100.00;98828.34;8309775;28;20049;-66
2021/12/27 17:43:42;;;;;;;24.35;13.10;;;;;;;8.99;100.00;98825.81;8310530;28;20041;-66
2021/12/27 17:47:45;;;;;;;17.27;9.35;;;;;;;9.01;100.00;98824.66;8305364;28;20115;-66
2021/12/27 17:51:46;;;;;;;18.80;11.82;;;;;;;9.03;100.00;98829.88;8304956;28;20442;-66
2021/12/27 17:55:46;;;;;;;16.45;9.93;;;;;;;9.04;100.00;98832.38;8330320;28;20057;-66
2021/12/27 17:59:47;;;;;;;14.00;9.67;;;;;;;9.02;100.00;98836.25;8341102;28;20112;-66
2021/12/27 18:03:47;;;;;;;15.70;9.27;;;;;;;9.02;100.00;98842.50;8314972;28;21877;-66
2021/12/27 18:07:48;;;;;;;15.05;7.82;;;;;;;8.96;100.00;98845.03;8316067;28;20073;-66
2021/12/27 18:11:49;;;;;;;14.85;8.90;;;;;;;8.96;100.00;98839.63;8314625;28;20402;-66
2021/12/27 18:15:49;;;;;;;15.88;10.55;;;;;;;8.85;100.00;98834.63;8310334;28;20072;-66
2021/12/27 18:19:50;;;;;;;20.75;10.75;;;;;;;8.88;100.00;98834.28;8340529;28;20657;-66
2021/12/27 18:23:51;;;;;;;16.20;10.10;;;;;;;8.90;100.00;98821.44;8316370;28;20041;-66
2021/12/27 18:27:52;;;;;;;15.77;9.77;;;;;;;8.80;100.00;98807.34;8314941;28;20499;-66
2021/12/27 18:31:53;;;;;;;14.77;10.00;;;;;;;8.82;100.00;98810.72;8316176;28;20084;-66
2021/12/27 18:35:53;;;;;;;18.00;10.45;;;;;;;8.80;100.00;98808.19;8345465;28;20374;-66
2021/12/27 18:39:54;;;;;;;15.68;9.73;;;;;;;8.84;100.00;98808.69;8314632;28;20033;-66
2021/12/27 18:43:55;;;;;;;13.65;9.10;;;;;;;8.88;100.00;98810.03;8327676;28;20061;-66
2021/12/27 18:47:55;;;;;;;19.42;10.02;;;;;;;8.92;100.00;98812.19;8316137;28;20533;-66